Tyrone, New York
Current Conditions -  °F | °C
As of 8:53 PM on Friday 21 Nov 2014 (Local Time) from KPEO Reporting Station
Broken Clouds Broken Clouds  
Wind Chill: 14°   Ceiling: 4100
Heat Index: 24°   Visibility: 10mi
Dew Point: 14°   Wind: 9mph
Humidity: 65%   Direction: 230°SW
Pressure: 30.41"   Gusts: NA
Location:  42.41°N, 77.06°W
Report Text: KPEO 220153Z AUTO 23008KT 10SM BKN041 M04/M10 A3041 RMK AO2 SLP315 T10441100
Loading
Personal Weather Stations






























Interactive Weather Map New forecast layout! Learn more

10-Day Weather Forecast

Advertisements
Track Severe Weather on mobile